Time;durP1;ratioP1;P1;durP2;ratioP2;P2;SDS_P1;SDS_P2;PMS_P1;PMS_P2;Temp;Humidity;BMP_temperature;BMP_pressure;BME280_temperature;BME280_humidity;BME280_pressure;Samples;Min_cycle;Max_cycle;Signal;HPM_P1;HPM_P2
2024/01/17 00:00:15;;;;;;;1.00;0.80;;;19.20;50.30;;;;;;5038234;28;20033;-46
2024/01/17 00:02:41;;;;;;;0.73;0.57;;;19.10;50.90;;;;;;5034147;28;20033;-50
2024/01/17 00:05:09;;;;;;;1.42;0.77;;;19.10;50.20;;;;;;5027312;28;20047;-49
2024/01/17 00:07:35;;;;;;;1.17;0.75;;;19.20;50.30;;;;;;5036079;28;20048;-47
2024/01/17 00:10:01;;;;;;;1.65;1.08;;;19.20;50.30;;;;;;5031859;28;20026;-49
2024/01/17 00:12:26;;;;;;;2.45;1.25;;;19.20;50.20;;;;;;5026765;28;20035;-46
2024/01/17 00:14:52;;;;;;;0.60;0.60;;;19.20;50.20;;;;;;5029703;28;20176;-51
2024/01/17 00:17:17;;;;;;;1.90;1.05;;;19.20;50.20;;;;;;5031004;28;20036;-47
2024/01/17 00:19:43;;;;;;;2.42;0.88;;;19.20;50.30;;;;;;5028469;28;20033;-47
2024/01/17 00:22:08;;;;;;;1.00;0.70;;;19.20;50.20;;;;;;5036498;28;20036;-47
2024/01/17 00:24:34;;;;;;;1.42;1.05;;;19.20;50.20;;;;;;5032474;28;20773;-47
2024/01/17 00:26:59;;;;;;;1.30;0.85;;;19.20;50.10;;;;;;5029999;28;20397;-47
2024/01/17 00:29:25;;;;;;;1.52;1.00;;;19.20;50.10;;;;;;5051220;28;20043;-48
2024/01/17 00:31:50;;;;;;;1.65;0.90;;;19.20;50.20;;;;;;5031363;28;20026;-47
2024/01/17 00:34:16;;;;;;;1.05;0.80;;;19.20;50.10;;;;;;5029399;28;20094;-50
2024/01/17 00:36:42;;;;;;;0.93;0.82;;;19.20;50.20;;;;;;5037785;28;20033;-54
2024/01/17 00:39:08;;;;;;;0.90;0.60;;;19.20;50.10;;;;;;5030674;28;20041;-52
2024/01/17 00:41:34;;;;;;;0.93;0.70;;;19.20;50.20;;;;;;5044950;28;20040;-54
2024/01/17 00:43:59;;;;;;;2.00;0.98;;;19.20;50.10;;;;;;5036212;28;20033;-48
2024/01/17 00:46:25;;;;;;;0.98;0.70;;;19.20;50.10;;;;;;5030503;28;20037;-48
2024/01/17 00:48:50;;;;;;;0.90;0.80;;;19.20;50.10;;;;;;5032451;28;20033;-46
2024/01/17 00:51:23;;;;;;;1.83;1.10;;;19.20;50.10;;;;;;5045016;28;20027;-45
2024/01/17 00:53:48;;;;;;;1.05;0.73;;;19.20;50.10;;;;;;5044014;28;20056;-46
2024/01/17 00:56:14;;;;;;;1.75;1.02;;;19.20;50.10;;;;;;5045221;28;20033;-50
2024/01/17 00:58:39;;;;;;;0.70;0.63;;;19.20;50.10;;;;;;5042333;28;20052;-54
2024/01/17 01:01:05;;;;;;;1.00;0.77;;;19.20;50.10;;;;;;5027462;28;20490;-49
2024/01/17 01:03:31;;;;;;;0.95;0.85;;;19.20;50.10;;;;;;5035153;28;20032;-48
2024/01/17 01:05:56;;;;;;;0.65;0.43;;;19.20;50.20;;;;;;5035595;28;20029;-53
2024/01/17 01:08:22;;;;;;;0.93;0.80;;;19.10;50.20;;;;;;5028765;28;20068;-51
2024/01/17 01:10:48;;;;;;;1.20;0.82;;;19.10;50.20;;;;;;5033564;28;20033;-50
2024/01/17 01:13:13;;;;;;;0.90;0.70;;;19.00;50.30;;;;;;5034741;28;20033;-48
2024/01/17 01:15:39;;;;;;;0.70;0.70;;;18.90;50.40;;;;;;5030454;28;20063;-54
2024/01/17 01:18:04;;;;;;;2.42;0.80;;;18.90;50.60;;;;;;5038099;28;20029;-53
2024/01/17 01:20:30;;;;;;;1.63;0.70;;;18.80;50.70;;;;;;5034735;28;20037;-48
2024/01/17 01:22:56;;;;;;;1.00;0.80;;;18.80;50.80;;;;;;5031266;28;20029;-47
2024/01/17 01:25:21;;;;;;;1.00;0.80;;;18.70;50.80;;;;;;5039014;28;20036;-47
2024/01/17 01:27:47;;;;;;;1.08;0.75;;;18.70;51.10;;;;;;5038061;28;20031;-54
2024/01/17 01:30:12;;;;;;;1.50;1.00;;;18.60;51.20;;;;;;5034699;28;20057;-45
2024/01/17 01:32:38;;;;;;;1.27;0.85;;;18.60;51.30;;;;;;5040086;28;20078;-53
2024/01/17 01:35:04;;;;;;;1.67;0.77;;;18.50;51.50;;;;;;5036683;28;20120;-47
2024/01/17 01:37:29;;;;;;;0.77;0.65;;;18.50;51.50;;;;;;5039198;28;20044;-55
2024/01/17 01:39:55;;;;;;;1.65;0.80;;;18.40;51.60;;;;;;5037378;28;20044;-52
2024/01/17 01:42:20;;;;;;;0.77;0.57;;;18.40;51.60;;;;;;5035658;28;20025;-45
2024/01/17 01:44:46;;;;;;;1.25;0.70;;;18.40;52.10;;;;;;5038164;28;20030;-49
2024/01/17 01:47:15;;;;;;;2.15;1.00;;;18.40;51.50;;;;;;5037585;28;20029;-53
2024/01/17 01:49:40;;;;;;;1.15;0.75;;;18.50;51.40;;;;;;5036862;28;20498;-45
2024/01/17 01:52:06;;;;;;;1.25;0.80;;;18.50;51.30;;;;;;5033774;28;20079;-50
2024/01/17 01:54:33;;;;;;;1.20;0.80;;;18.60;51.10;;;;;;5040318;28;20041;-47
2024/01/17 01:56:59;;;;;;;1.02;0.70;;;18.60;50.90;;;;;;5035045;28;20428;-46
2024/01/17 01:59:25;;;;;;;1.30;0.90;;;18.70;50.70;;;;;;5034500;28;20033;-45
2024/01/17 02:01:51;;;;;;;0.80;0.75;;;18.70;50.50;;;;;;5040923;28;20048;-47
2024/01/17 02:04:17;;;;;;;1.00;0.80;;;18.90;50.40;;;;;;5038011;28;20052;-45
2024/01/17 02:06:44;;;;;;;1.75;1.00;;;18.90;50.20;;;;;;5034439;28;20037;-48
2024/01/17 02:09:10;;;;;;;1.45;0.98;;;19.00;50.00;;;;;;5038851;28;20064;-56
2024/01/17 02:11:36;;;;;;;1.27;0.90;;;19.10;49.90;;;;;;5036531;28;20095;-45
2024/01/17 02:14:01;;;;;;;1.95;0.80;;;19.20;49.80;;;;;;5037290;28;20138;-47
2024/01/17 02:16:27;;;;;;;1.00;0.52;;;19.20;49.70;;;;;;5039957;28;20029;-47
2024/01/17 02:18:53;;;;;;;2.10;0.73;;;19.30;49.50;;;;;;5036820;28;20091;-46
2024/01/17 02:21:19;;;;;;;0.60;0.60;;;19.40;49.50;;;;;;5038218;28;20032;-49
2024/01/17 02:23:49;;;;;;;1.35;0.70;;;19.40;49.40;;;;;;5039772;28;20397;-48
2024/01/17 02:26:15;;;;;;;2.17;0.80;;;19.50;49.30;;;;;;5037514;28;20037;-47
2024/01/17 02:28:40;;;;;;;0.85;0.65;;;19.50;49.30;;;;;;5039166;28;20037;-54
2024/01/17 02:31:06;;;;;;;1.15;0.57;;;19.60;49.20;;;;;;5036841;28;20487;-45
2024/01/17 02:33:33;;;;;;;1.00;0.70;;;19.60;49.10;;;;;;5036534;28;20021;-49
2024/01/17 02:35:58;;;;;;;1.55;0.80;;;19.60;49.10;;;;;;5036324;28;20526;-49
2024/01/17 02:38:24;;;;;;;0.95;0.73;;;19.60;49.00;;;;;;5037468;28;20044;-45
2024/01/17 02:40:49;;;;;;;1.95;0.85;;;19.60;49.00;;;;;;5036437;28;20128;-53
2024/01/17 02:43:15;;;;;;;0.85;0.73;;;19.70;49.00;;;;;;5037553;28;20437;-54
2024/01/17 02:45:40;;;;;;;1.85;0.77;;;19.70;49.00;;;;;;5037650;28;20502;-45
2024/01/17 02:48:06;;;;;;;1.60;0.65;;;19.70;49.00;;;;;;5035029;28;20072;-45
2024/01/17 02:50:32;;;;;;;2.42;1.00;;;19.60;49.10;;;;;;5037171;28;20029;-47
2024/01/17 02:52:57;;;;;;;1.05;0.68;;;19.60;49.00;;;;;;5036676;28;20068;-56
2024/01/17 02:55:23;;;;;;;1.00;0.70;;;19.60;49.10;;;;;;5034244;28;20029;-50
2024/01/17 02:57:50;;;;;;;0.75;0.52;;;19.60;49.10;;;;;;5037283;28;20053;-45
2024/01/17 03:00:16;;;;;;;1.52;0.70;;;19.60;49.20;;;;;;5033110;28;20031;-48
2024/01/17 03:02:42;;;;;;;0.70;0.50;;;19.60;49.20;;;;;;5033235;28;20032;-54
2024/01/17 03:05:08;;;;;;;1.45;0.75;;;19.60;49.30;;;;;;5026553;28;20041;-52
2024/01/17 03:07:33;;;;;;;1.15;0.90;;;19.60;49.30;;;;;;5030269;28;20044;-52
2024/01/17 03:09:59;;;;;;;0.60;0.60;;;19.50;49.30;;;;;;5034443;28;20045;-45
2024/01/17 03:12:24;;;;;;;1.08;0.95;;;19.50;49.40;;;;;;5036849;28;20490;-50
2024/01/17 03:14:50;;;;;;;1.08;0.77;;;19.50;49.50;;;;;;5036686;28;20115;-55
2024/01/17 03:17:16;;;;;;;0.70;0.60;;;19.40;49.50;;;;;;5040112;28;20049;-55
2024/01/17 03:19:46;;;;;;;1.23;0.60;;;19.40;49.60;;;;;;5037185;28;20041;-47
2024/01/17 03:22:12;;;;;;;0.95;0.70;;;19.40;49.70;;;;;;5037999;28;20033;-55
2024/01/17 03:24:38;;;;;;;0.82;0.60;;;19.30;49.70;;;;;;5031640;28;20041;-53
2024/01/17 03:27:03;;;;;;;1.02;0.55;;;19.30;49.70;;;;;;5039605;28;20025;-45
2024/01/17 03:29:29;;;;;;;0.90;0.60;;;19.20;49.70;;;;;;5037683;28;20186;-48
2024/01/17 03:31:55;;;;;;;1.17;0.90;;;19.20;49.80;;;;;;5030268;28;20045;-48
2024/01/17 03:34:20;;;;;;;0.70;0.50;;;19.20;49.90;;;;;;5039767;28;20033;-47
2024/01/17 03:36:46;;;;;;;1.98;1.05;;;19.20;49.90;;;;;;5036778;28;20124;-54
2024/01/17 03:39:12;;;;;;;1.20;0.75;;;19.10;50.00;;;;;;5029264;28;20041;-44
2024/01/17 03:41:37;;;;;;;0.90;0.68;;;19.10;50.00;;;;;;5040103;28;20061;-50
2024/01/17 03:44:03;;;;;;;0.57;0.57;;;19.00;50.70;;;;;;5034072;28;20078;-47
2024/01/17 03:46:28;;;;;;;1.38;0.65;;;19.00;50.20;;;;;;5030385;28;20025;-45
2024/01/17 03:48:54;;;;;;;0.85;0.80;;;19.00;50.20;;;;;;5034879;28;20087;-55
2024/01/17 03:51:19;;;;;;;1.10;0.60;;;19.00;50.20;;;;;;5032842;28;20021;-45
2024/01/17 03:53:46;;;;;;;0.85;0.70;;;18.90;50.30;;;;;;5033677;28;20107;-54
2024/01/17 03:56:12;;;;;;;1.08;0.57;;;18.90;50.30;;;;;;5033968;28;20033;-49
2024/01/17 03:58:39;;;;;;;0.85;0.60;;;18.90;50.40;;;;;;5032384;28;20040;-53
2024/01/17 04:01:05;;;;;;;1.40;0.88;;;18.90;50.40;;;;;;5029628;28;20078;-47
2024/01/17 04:03:31;;;;;;;1.02;0.73;;;18.80;50.40;;;;;;5032754;28;20421;-52
2024/01/17 04:05:56;;;;;;;0.80;0.80;;;18.90;50.50;;;;;;5028160;28;20049;-46
2024/01/17 04:08:21;;;;;;;0.88;0.63;;;18.90;50.50;;;;;;5030589;28;20086;-52
2024/01/17 04:10:47;;;;;;;0.95;0.70;;;18.80;50.40;;;;;;5037507;28;20029;-50
2024/01/17 04:13:12;;;;;;;0.70;0.68;;;18.80;50.50;;;;;;5032314;28;20387;-54
2024/01/17 04:15:38;;;;;;;1.27;0.75;;;18.80;50.50;;;;;;5035152;28;20048;-49
2024/01/17 04:18:04;;;;;;;0.80;0.70;;;18.80;50.40;;;;;;5037836;28;20037;-52
2024/01/17 04:20:29;;;;;;;0.73;0.45;;;18.80;50.50;;;;;;5033345;28;20096;-48
2024/01/17 04:22:55;;;;;;;1.58;0.70;;;18.80;50.40;;;;;;5034481;28;20505;-45
2024/01/17 04:25:20;;;;;;;0.85;0.55;;;18.80;50.50;;;;;;5037752;28;20088;-51
2024/01/17 04:27:46;;;;;;;1.08;0.55;;;18.80;50.40;;;;;;5030359;28;20029;-57
2024/01/17 04:30:12;;;;;;;1.10;0.77;;;18.70;50.40;;;;;;5036353;28;20029;-44
2024/01/17 04:32:37;;;;;;;1.15;0.55;;;18.80;50.50;;;;;;5035588;28;20553;-49
2024/01/17 04:35:04;;;;;;;1.27;0.75;;;18.70;50.40;;;;;;5029386;28;20458;-46
2024/01/17 04:37:30;;;;;;;1.10;0.60;;;18.70;50.40;;;;;;5042186;28;20120;-46
2024/01/17 04:39:57;;;;;;;0.95;0.60;;;18.70;50.50;;;;;;5034501;28;20116;-50
2024/01/17 04:42:22;;;;;;;1.13;0.70;;;18.70;50.40;;;;;;5038617;28;20051;-46
2024/01/17 04:44:49;;;;;;;1.38;0.80;;;18.70;50.40;;;;;;5038736;28;20550;-51
2024/01/17 04:47:14;;;;;;;1.00;0.70;;;18.70;50.40;;;;;;5033605;28;20044;-45
2024/01/17 04:49:40;;;;;;;1.67;0.73;;;18.70;50.50;;;;;;5031262;28;20068;-48
2024/01/17 04:52:05;;;;;;;4.00;0.77;;;18.70;50.30;;;;;;5033721;28;20401;-52
2024/01/17 04:54:31;;;;;;;0.75;0.65;;;18.70;50.40;;;;;;5033464;28;20083;-53
2024/01/17 04:56:57;;;;;;;1.27;0.65;;;18.70;50.30;;;;;;5044617;28;20041;-51
2024/01/17 04:59:23;;;;;;;0.65;0.60;;;18.70;50.30;;;;;;5034016;28;20032;-49
2024/01/17 05:01:49;;;;;;;0.77;0.50;;;18.80;50.40;;;;;;5036050;28;20036;-50
2024/01/17 05:04:14;;;;;;;0.98;0.85;;;18.80;50.30;;;;;;5029816;28;20063;-47
2024/01/17 05:06:40;;;;;;;0.70;0.60;;;18.80;50.30;;;;;;5034963;28;20041;-48
2024/01/17 05:09:08;;;;;;;1.67;0.70;;;18.80;50.20;;;;;;5030957;28;20045;-44
2024/01/17 05:11:34;;;;;;;3.90;0.80;;;18.80;50.30;;;;;;5028308;28;20025;-51
2024/01/17 05:13:59;;;;;;;1.30;0.50;;;18.80;50.20;;;;;;5035809;28;20056;-48
2024/01/17 05:16:25;;;;;;;0.98;0.45;;;18.80;50.80;;;;;;5031658;28;20356;-48
2024/01/17 05:18:50;;;;;;;0.75;0.60;;;18.80;50.10;;;;;;5027462;28;20041;-52
2024/01/17 05:21:16;;;;;;;1.13;0.60;;;18.80;50.10;;;;;;5036479;28;20029;-46
2024/01/17 05:23:41;;;;;;;0.85;0.70;;;18.80;50.10;;;;;;5031127;28;20125;-45
2024/01/17 05:26:07;;;;;;;1.00;0.60;;;18.90;50.10;;;;;;5029622;28;20041;-46
2024/01/17 05:28:33;;;;;;;1.45;0.80;;;18.80;50.00;;;;;;5037665;28;20068;-51
2024/01/17 05:30:58;;;;;;;0.68;0.60;;;18.80;50.00;;;;;;5029366;28;20045;-55
2024/01/17 05:33:24;;;;;;;1.65;0.90;;;18.80;50.00;;;;;;5031759;28;20032;-46
2024/01/17 05:35:49;;;;;;;1.65;0.95;;;18.90;50.00;;;;;;5036221;28;20056;-57
2024/01/17 05:38:14;;;;;;;1.92;1.40;;;18.90;50.00;;;;;;5032215;28;20041;-56
2024/01/17 05:40:40;;;;;;;1.73;0.85;;;18.90;50.00;;;;;;5032558;28;20091;-46
2024/01/17 05:43:06;;;;;;;2.22;1.38;;;18.90;50.00;;;;;;5034441;28;20095;-45
2024/01/17 05:45:31;;;;;;;1.40;0.95;;;18.90;50.00;;;;;;5028791;28;20025;-54
2024/01/17 05:47:57;;;;;;;1.67;0.85;;;18.90;50.00;;;;;;5035696;28;20090;-53
2024/01/17 05:50:22;;;;;;;1.90;1.10;;;18.90;50.00;;;;;;5035076;28;20049;-50
2024/01/17 05:52:48;;;;;;;2.25;1.17;;;18.90;50.00;;;;;;5027936;28;20029;-48
2024/01/17 05:55:15;;;;;;;2.88;1.23;;;18.90;50.00;;;;;;5030273;28;20044;-48
2024/01/17 05:57:41;;;;;;;2.42;1.42;;;18.90;50.00;;;;;;5034866;28;20375;-48
2024/01/17 06:00:12;;;;;;;3.03;1.10;;;18.90;50.00;;;;;;5026956;28;20060;-45
2024/01/17 06:02:39;;;;;;;2.05;1.40;;;18.90;50.00;;;;;;5033379;28;20040;-57
2024/01/17 06:05:05;;;;;;;3.38;1.42;;;18.90;49.90;;;;;;5032235;28;20040;-48
2024/01/17 06:07:31;;;;;;;7.75;1.58;;;18.90;50.00;;;;;;5030881;28;20029;-46
2024/01/17 06:09:56;;;;;;;2.38;1.20;;;18.90;50.00;;;;;;5031448;28;20068;-47
2024/01/17 06:12:22;;;;;;;3.85;1.63;;;18.90;49.90;;;;;;5038620;28;20423;-52
2024/01/17 06:14:48;;;;;;;3.28;1.38;;;18.90;49.90;;;;;;5035840;28;20051;-57
2024/01/17 06:17:14;;;;;;;5.47;2.10;;;18.90;49.90;;;;;;5039172;28;20108;-50
2024/01/17 06:19:41;;;;;;;2.35;1.38;;;18.90;50.00;;;;;;5038657;28;20124;-49
2024/01/17 06:22:07;;;;;;;3.38;1.52;;;18.90;50.00;;;;;;5032626;28;20126;-46
2024/01/17 06:24:33;;;;;;;4.03;1.48;;;18.90;50.00;;;;;;5038505;28;20520;-47
2024/01/17 06:26:58;;;;;;;3.63;1.63;;;18.90;49.90;;;;;;5034424;28;20049;-48
2024/01/17 06:29:25;;;;;;;2.33;1.50;;;18.90;50.00;;;;;;5031872;28;20044;-55
2024/01/17 06:31:52;;;;;;;2.28;1.50;;;18.90;49.90;;;;;;5050197;28;20029;-54
2024/01/17 06:34:17;;;;;;;2.65;1.42;;;18.90;49.90;;;;;;5031605;28;20037;-54
2024/01/17 06:36:43;;;;;;;3.85;1.67;;;18.90;49.90;;;;;;5032217;28;20455;-55
2024/01/17 06:39:10;;;;;;;1.98;1.20;;;18.90;49.80;;;;;;5035573;28;20056;-57
2024/01/17 06:41:36;;;;;;;4.50;1.67;;;18.90;49.90;;;;;;5030940;28;20029;-46
2024/01/17 06:44:01;;;;;;;3.45;1.70;;;18.90;49.90;;;;;;5034472;28;20751;-48
2024/01/17 06:46:27;;;;;;;1.92;1.20;;;18.90;49.80;;;;;;5038286;28;20124;-55
2024/01/17 06:48:52;;;;;;;5.13;1.80;;;18.90;49.90;;;;;;5025157;28;20603;-55
2024/01/17 06:51:18;;;;;;;2.42;1.55;;;18.90;49.80;;;;;;5045930;28;20032;-49
2024/01/17 06:53:43;;;;;;;4.13;1.50;;;18.90;49.80;;;;;;5034395;28;20074;-52
2024/01/17 06:56:09;;;;;;;3.10;1.65;;;18.90;49.80;;;;;;5033751;28;20045;-51
2024/01/17 06:58:34;;;;;;;3.28;1.35;;;18.90;49.80;;;;;;5034027;28;20041;-55
2024/01/17 07:01:00;;;;;;;2.97;1.58;;;18.90;49.90;;;;;;5031378;28;20059;-51
2024/01/17 07:03:25;;;;;;;2.75;1.58;;;18.90;49.90;;;;;;5031604;28;20417;-50
2024/01/17 07:05:51;;;;;;;2.53;1.40;;;18.90;49.90;;;;;;5035048;28;20032;-47
2024/01/17 07:08:17;;;;;;;2.15;1.40;;;18.80;49.90;;;;;;5030153;28;20401;-54
2024/01/17 07:10:42;;;;;;;4.25;1.55;;;18.80;49.90;;;;;;5053177;28;20673;-51
2024/01/17 07:13:08;;;;;;;3.58;1.73;;;18.80;50.00;;;;;;5034055;28;20075;-52
2024/01/17 07:15:33;;;;;;;4.60;1.52;;;18.70;50.10;;;;;;5037347;28;20036;-49
2024/01/17 07:17:59;;;;;;;2.10;1.40;;;18.70;50.30;;;;;;5028849;28;20060;-59
2024/01/17 07:20:24;;;;;;;2.60;1.52;;;18.60;50.40;;;;;;5031848;28;20044;-50
2024/01/17 07:22:50;;;;;;;2.90;1.65;;;18.60;50.60;;;;;;5029568;28;20098;-45
2024/01/17 07:25:15;;;;;;;2.83;1.60;;;18.50;50.80;;;;;;5033477;28;20433;-48
2024/01/17 07:27:44;;;;;;;3.80;1.90;;;18.40;50.80;;;;;;5025930;28;20039;-53
2024/01/17 07:30:11;;;;;;;8.52;4.70;;;18.40;49.90;;;;;;5044468;28;20068;-48
2024/01/17 07:32:38;;;;;;;10.32;5.63;;;18.40;48.80;;;;;;5030629;28;20124;-51
2024/01/17 07:35:04;;;;;;;13.27;6.10;;;18.30;49.10;;;;;;5031067;28;20038;-51
2024/01/17 07:37:29;;;;;;;10.57;6.20;;;18.30;48.70;;;;;;5038053;28;20112;-48
2024/01/17 07:39:55;;;;;;;11.15;4.95;;;18.30;48.70;;;;;;5033299;28;20121;-50
2024/01/17 07:42:21;;;;;;;13.73;5.93;;;18.20;49.90;;;;;;5031115;28;21979;-52
2024/01/17 07:44:47;;;;;;;12.15;5.82;;;18.20;50.40;;;;;;5030647;28;20034;-45
2024/01/17 07:47:12;;;;;;;10.98;5.28;;;18.10;50.40;;;;;;5034290;28;20131;-49
2024/01/17 07:49:39;;;;;;;10.05;5.03;;;18.10;50.70;;;;;;5026927;28;20041;-49
2024/01/17 07:52:05;;;;;;;11.18;5.82;;;18.00;50.70;;;;;;5031468;28;20025;-47
2024/01/17 07:54:34;;;;;;;11.18;5.40;;;18.10;50.80;;;;;;5030819;28;20029;-45
2024/01/17 07:57:00;;;;;;;11.25;5.43;;;18.10;50.80;;;;;;5031630;28;20029;-53
2024/01/17 07:59:27;;;;;;;9.98;5.80;;;18.20;50.60;;;;;;5033619;28;20414;-55
2024/01/17 08:01:53;;;;;;;9.63;5.05;;;18.20;50.20;;;;;;5027900;28;20033;-46
2024/01/17 08:04:19;;;;;;;6.88;4.68;;;18.30;50.00;;;;;;5031258;28;20033;-53
2024/01/17 08:06:45;;;;;;;11.30;5.50;;;18.50;49.90;;;;;;5038579;28;20478;-46
2024/01/17 08:09:26;;;;;;;10.57;5.10;;;18.60;49.70;;;;;;5029221;28;20099;-50
2024/01/17 08:11:53;;;;;;;8.80;4.38;;;18.70;49.40;;;;;;5027079;28;20074;-45
2024/01/17 08:14:19;;;;;;;9.75;5.10;;;18.80;49.30;;;;;;5033446;28;20036;-51
2024/01/17 08:16:46;;;;;;;7.72;4.72;;;19.00;49.10;;;;;;5027889;28;20033;-54
2024/01/17 08:19:11;;;;;;;7.07;4.10;;;19.10;48.90;;;;;;5032086;28;20042;-47
2024/01/17 08:21:37;;;;;;;8.38;4.38;;;19.20;48.80;;;;;;5032289;28;20036;-48
2024/01/17 08:24:03;;;;;;;8.30;4.20;;;19.30;48.70;;;;;;5027264;28;20029;-47
2024/01/17 08:26:28;;;;;;;6.75;4.15;;;19.40;48.50;;;;;;5034971;28;20033;-52
2024/01/17 08:28:55;;;;;;;8.85;4.45;;;19.40;48.40;;;;;;5028717;28;20041;-48
2024/01/17 08:31:20;;;;;;;6.30;4.15;;;19.60;48.30;;;;;;5028697;28;20033;-58
2024/01/17 08:33:46;;;;;;;6.57;4.57;;;19.60;48.20;;;;;;5034368;28;20510;-46
2024/01/17 08:36:14;;;;;;;9.57;4.65;;;19.60;47.80;;;;;;5029457;28;20040;-45
2024/01/17 08:38:40;;;;;;;6.25;3.90;;;19.60;47.90;;;;;;5031098;28;20072;-49
2024/01/17 08:41:05;;;;;;;5.93;4.05;;;19.60;47.90;;;;;;5031179;28;20052;-47
2024/01/17 08:43:31;;;;;;;6.53;3.70;;;19.70;48.00;;;;;;5029821;28;20037;-49
2024/01/17 08:45:57;;;;;;;9.00;4.00;;;19.70;48.10;;;;;;5028746;28;20025;-53
2024/01/17 08:48:22;;;;;;;6.78;3.60;;;19.70;48.10;;;;;;5036026;28;20025;-51
2024/01/17 08:50:48;;;;;;;7.22;3.70;;;19.70;48.20;;;;;;5027882;28;20049;-54
2024/01/17 08:53:14;;;;;;;6.22;3.67;;;19.70;48.20;;;;;;5029971;28;20530;-49
2024/01/17 08:55:39;;;;;;;8.18;3.80;;;19.70;48.30;;;;;;5033381;28;20041;-48
2024/01/17 08:58:06;;;;;;;6.53;3.72;;;19.60;48.30;;;;;;5027705;28;20117;-52
2024/01/17 09:00:31;;;;;;;5.72;3.65;;;19.60;48.40;;;;;;5033936;28;20751;-48
2024/01/17 09:02:57;;;;;;;7.03;4.07;;;19.60;48.50;;;;;;5030991;28;20022;-56
2024/01/17 09:05:23;;;;;;;6.97;3.95;;;19.60;48.60;;;;;;5031566;28;20128;-54
2024/01/17 09:07:49;;;;;;;6.15;3.65;;;19.50;48.60;;;;;;5028982;28;20151;-45
2024/01/17 09:10:17;;;;;;;5.57;3.47;;;19.50;48.70;;;;;;5032051;28;20455;-45
2024/01/17 09:12:43;;;;;;;6.30;3.00;;;19.50;48.80;;;;;;5028292;28;20438;-46
2024/01/17 09:15:09;;;;;;;5.57;3.05;;;19.50;48.80;;;;;;5033883;28;20032;-46
2024/01/17 09:17:34;;;;;;;4.60;3.25;;;19.50;48.90;;;;;;5032130;28;20487;-48
2024/01/17 09:20:00;;;;;;;5.25;3.00;;;19.50;48.90;;;;;;5027303;28;20029;-50
2024/01/17 09:22:26;;;;;;;5.38;2.97;;;19.40;48.90;;;;;;5029696;28;20032;-52
2024/01/17 09:24:52;;;;;;;5.10;3.30;;;19.40;48.90;;;;;;5029953;28;20033;-52
2024/01/17 09:27:18;;;;;;;4.30;2.85;;;19.40;48.90;;;;;;5034644;28;20058;-59
2024/01/17 09:29:45;;;;;;;6.03;2.75;;;19.40;48.90;;;;;;5031081;28;20498;-55
2024/01/17 09:32:12;;;;;;;5.95;3.40;;;19.40;48.90;;;;;;5028853;28;20052;-52
2024/01/17 09:34:37;;;;;;;4.63;2.90;;;19.50;49.00;;;;;;5027759;28;20041;-57
2024/01/17 09:37:03;;;;;;;4.40;2.78;;;19.50;49.00;;;;;;5033614;28;20037;-50
2024/01/17 09:39:30;;;;;;;4.72;2.95;;;19.40;48.90;;;;;;5030450;28;20044;-48
2024/01/17 09:41:58;;;;;;;4.72;2.65;;;19.50;48.90;;;;;;5025689;28;20041;-51
2024/01/17 09:44:24;;;;;;;4.15;2.60;;;19.50;48.90;;;;;;5032793;28;20035;-51
2024/01/17 09:46:51;;;;;;;3.97;3.10;;;19.50;48.90;;;;;;5030200;28;20608;-52
2024/01/17 09:49:16;;;;;;;4.55;2.75;;;19.50;48.80;;;;;;5035691;28;20075;-50
2024/01/17 09:51:42;;;;;;;5.25;2.92;;;19.60;48.80;;;;;;5036134;28;20033;-51
2024/01/17 09:54:09;;;;;;;5.10;2.70;;;19.50;48.70;;;;;;5030533;28;20113;-49
2024/01/17 09:56:35;;;;;;;3.50;2.50;;;19.60;48.70;;;;;;5035677;28;20037;-52
2024/01/17 09:59:13;;;;;;;3.20;2.55;;;19.60;48.70;;;;;;5038327;28;20030;-48
2024/01/17 10:01:39;;;;;;;4.05;2.65;;;19.60;48.70;;;;;;5035500;28;20044;-55
2024/01/17 10:04:05;;;;;;;4.90;2.70;;;19.70;48.60;;;;;;5031714;28;20033;-53
2024/01/17 10:06:32;;;;;;;5.18;2.28;;;19.70;48.50;;;;;;5035172;28;20030;-55
2024/01/17 10:08:58;;;;;;;2.88;2.17;;;19.80;48.60;;;;;;5030729;28;20034;-50
2024/01/17 10:11:24;;;;;;;4.63;2.50;;;19.70;48.40;;;;;;5033995;28;20032;-54
2024/01/17 10:13:50;;;;;;;4.85;2.25;;;19.80;48.40;;;;;;5033870;28;20122;-52
2024/01/17 10:16:15;;;;;;;4.35;2.45;;;19.80;48.40;;;;;;5032321;28;20567;-57
2024/01/17 10:18:41;;;;;;;3.40;2.30;;;19.80;48.40;;;;;;5060138;22;20048;-48
2024/01/17 10:21:07;;;;;;;4.57;2.50;;;19.90;48.30;;;;;;5040794;28;20029;-51
2024/01/17 10:23:33;;;;;;;2.90;2.03;;;19.90;48.30;;;;;;5058111;28;20025;-47
2024/01/17 10:25:59;;;;;;;3.20;2.15;;;19.90;48.30;;;;;;5038954;28;20029;-49
2024/01/17 10:28:24;;;;;;;3.40;2.17;;;20.00;48.20;;;;;;5019351;28;20033;-48
2024/01/17 10:30:50;;;;;;;2.90;2.03;;;20.00;48.20;;;;;;5040895;28;20103;-46
2024/01/17 10:33:16;;;;;;;3.42;2.58;;;20.00;48.10;;;;;;5039634;28;20086;-50
2024/01/17 10:35:42;;;;;;;3.15;2.40;;;20.00;48.10;;;;;;5037451;28;20045;-50
2024/01/17 10:38:08;;;;;;;3.63;2.25;;;20.10;48.20;;;;;;5042956;28;20432;-49
2024/01/17 10:40:34;;;;;;;3.90;2.10;;;20.00;48.10;;;;;;5038838;28;20496;-47
2024/01/17 10:43:10;;;;;;;2.78;2.20;;;20.10;48.10;;;;;;5024766;28;20051;-52
2024/01/17 10:45:37;;;;;;;2.92;2.10;;;20.10;48.10;;;;;;5037983;28;20132;-49
2024/01/17 10:48:04;;;;;;;4.60;2.55;;;20.10;48.10;;;;;;5022801;28;20025;-47
2024/01/17 10:50:30;;;;;;;4.28;2.22;;;20.10;48.20;;;;;;5039361;28;20025;-49
2024/01/17 10:53:08;;;;;;;2.58;2.15;;;20.10;48.10;;;;;;5039558;28;20478;-47
2024/01/17 10:55:35;;;;;;;2.35;1.85;;;20.10;48.20;;;;;;5034373;28;20547;-49
2024/01/17 10:58:05;;;;;;;4.20;2.10;;;20.10;48.20;;;;;;5038256;28;20077;-52
2024/01/17 11:00:33;;;;;;;2.67;2.00;;;20.10;48.20;;;;;;5033869;28;20174;-49
2024/01/17 11:02:59;;;;;;;2.60;1.60;;;20.10;48.30;;;;;;5037152;28;20589;-50
2024/01/17 11:05:29;;;;;;;2.50;1.90;;;20.00;48.30;;;;;;5036359;28;20029;-49
2024/01/17 11:07:58;;;;;;;3.10;1.80;;;20.00;48.40;;;;;;5032880;28;20029;-50
2024/01/17 11:10:25;;;;;;;2.50;1.98;;;20.00;48.40;;;;;;5033828;28;20360;-48
2024/01/17 11:12:52;;;;;;;2.60;1.90;;;20.00;48.50;;;;;;5042199;28;20025;-52
2024/01/17 11:15:18;;;;;;;2.10;1.77;;;19.90;48.50;;;;;;5033365;28;20098;-50
2024/01/17 11:17:45;;;;;;;3.63;2.03;;;19.80;48.50;;;;;;5035044;28;20041;-50
2024/01/17 11:20:12;;;;;;;2.90;1.92;;;19.80;48.70;;;;;;5031234;28;20048;-49
2024/01/17 11:22:41;;;;;;;4.45;1.70;;;19.80;48.70;;;;;;5032519;28;20057;-47
2024/01/17 11:25:16;;;;;;;2.45;1.80;;;19.70;48.80;;;;;;5024874;28;20034;-49
2024/01/17 11:28:06;;;;;;;3.03;1.90;;;19.70;48.90;;;;;;5029764;28;20569;-49
2024/01/17 11:30:58;;;;;;;1.92;1.63;;;19.70;48.90;;;;;;5034874;28;20540;-49
2024/01/17 11:33:26;;;;;;;2.85;2.00;;;19.60;49.00;;;;;;5037672;28;20640;-47
2024/01/17 11:35:53;;;;;;;3.88;2.00;;;19.60;49.10;;;;;;5028378;28;20045;-51
2024/01/17 11:38:24;;;;;;;1.92;1.50;;;19.60;49.30;;;;;;5033712;28;20083;-49
2024/01/17 11:40:53;;;;;;;2.58;1.75;;;19.50;49.30;;;;;;5035879;28;20068;-53
2024/01/17 11:43:19;;;;;;;2.67;1.88;;;19.50;49.60;;;;;;5032148;28;20509;-46
2024/01/17 11:45:47;;;;;;;2.83;1.77;;;19.40;49.30;;;;;;5035684;28;20757;-48
2024/01/17 11:48:27;;;;;;;2.13;1.50;;;19.40;49.50;;;;;;5035929;28;20029;-49
2024/01/17 11:50:59;;;;;;;2.45;1.55;;;19.40;49.60;;;;;;5032415;28;20033;-48
2024/01/17 11:53:27;;;;;;;2.20;1.67;;;19.40;49.60;;;;;;5031994;28;21156;-46
2024/01/17 11:55:52;;;;;;;2.38;1.80;;;19.40;49.70;;;;;;5029000;28;20040;-46
2024/01/17 11:58:18;;;;;;;1.83;1.50;;;19.30;49.70;;;;;;5035984;28;20037;-45
2024/01/17 12:00:44;;;;;;;2.15;1.23;;;19.30;50.40;;;;;;5030173;28;20052;-50
2024/01/17 12:03:27;;;;;;;2.38;1.60;;;19.30;49.80;;;;;;5036349;28;20049;-49
2024/01/17 12:05:52;;;;;;;2.42;1.50;;;19.20;49.80;;;;;;5031451;28;20033;-47
2024/01/17 12:08:19;;;;;;;3.33;1.90;;;19.20;49.80;;;;;;5033499;28;20089;-46
2024/01/17 12:10:52;;;;;;;2.00;1.40;;;19.20;49.90;;;;;;5031854;28;20090;-49
2024/01/17 12:13:17;;;;;;;2.13;1.60;;;19.20;49.90;;;;;;5037039;28;20029;-49
2024/01/17 12:15:43;;;;;;;2.53;1.67;;;19.20;49.90;;;;;;5031747;28;20500;-51
2024/01/17 12:18:09;;;;;;;3.63;1.70;;;19.20;50.00;;;;;;5034057;28;20033;-51
2024/01/17 12:20:35;;;;;;;3.45;1.80;;;19.20;50.00;;;;;;5031344;28;20025;-48
2024/01/17 12:23:01;;;;;;;2.97;1.60;;;19.20;50.00;;;;;;5038488;28;20021;-53
2024/01/17 12:25:26;;;;;;;2.00;1.50;;;19.10;50.00;;;;;;5035922;28;20036;-50
2024/01/17 12:27:53;;;;;;;2.58;1.85;;;19.10;50.00;;;;;;5036917;28;20033;-48
2024/01/17 12:30:19;;;;;;;1.88;1.08;;;19.10;50.00;;;;;;5041863;28;20588;-52
2024/01/17 12:32:45;;;;;;;1.38;1.23;;;19.10;50.10;;;;;;5040185;28;20056;-51
2024/01/17 12:35:11;;;;;;;1.90;1.30;;;19.10;50.10;;;;;;5039517;28;20032;-51
2024/01/17 12:37:37;;;;;;;2.08;1.35;;;19.10;50.00;;;;;;5035523;28;20063;-49
2024/01/17 12:40:04;;;;;;;1.83;1.25;;;19.00;50.00;;;;;;5040083;28;20025;-49